createdAt,value
2017-08-15T00:00:33.385Z,9.37
2017-08-15T00:03:00.878Z,9.50
2017-08-15T00:05:29.102Z,9.90
2017-08-15T00:07:56.573Z,10.20
2017-08-15T00:10:24.062Z,9.40
2017-08-15T00:12:51.522Z,10.90
2017-08-15T00:15:18.972Z,11.00
2017-08-15T00:17:46.453Z,11.10
2017-08-15T00:20:14.682Z,11.90
2017-08-15T00:22:42.138Z,9.80
2017-08-15T00:25:09.625Z,9.70
2017-08-15T00:27:37.096Z,10.30
2017-08-15T00:30:05.353Z,10.37
2017-08-15T00:32:32.853Z,10.20
2017-08-15T00:35:00.316Z,12.13
2017-08-15T00:37:27.772Z,10.47
2017-08-15T00:39:55.250Z,11.50
2017-08-15T00:42:22.725Z,11.57
2017-08-15T00:44:50.206Z,10.97
2017-08-15T00:47:17.658Z,11.30
2017-08-15T00:49:45.118Z,11.33
2017-08-15T00:52:12.589Z,12.90
2017-08-15T00:54:40.067Z,11.40
2017-08-15T00:57:07.534Z,11.27
2017-08-15T00:59:34.989Z,10.50
2017-08-15T01:02:02.468Z,11.20
2017-08-15T01:04:29.956Z,11.83
2017-08-15T01:06:57.421Z,12.40
2017-08-15T01:09:24.877Z,13.70
2017-08-15T01:11:52.349Z,13.27
2017-08-15T01:14:19.818Z,12.50
2017-08-15T01:16:47.382Z,12.80
2017-08-15T01:19:14.874Z,12.20
2017-08-15T01:21:42.459Z,12.73
2017-08-15T01:24:09.911Z,12.30
2017-08-15T01:26:37.382Z,13.37
2017-08-15T01:29:04.854Z,13.07
2017-08-15T01:31:32.315Z,14.43
2017-08-15T01:33:59.784Z,15.40
2017-08-15T01:36:27.241Z,14.93
2017-08-15T01:38:54.748Z,16.10
2017-08-15T01:41:22.210Z,16.07
2017-08-15T01:43:49.667Z,15.10
2017-08-15T01:46:17.142Z,17.63
2017-08-15T01:48:44.613Z,16.90
2017-08-15T01:51:12.085Z,17.43
2017-08-15T01:53:39.545Z,16.90
2017-08-15T01:56:07.031Z,16.00
2017-08-15T01:58:35.249Z,16.50
2017-08-15T02:01:02.714Z,18.00
2017-08-15T02:03:30.204Z,18.23
2017-08-15T02:05:57.654Z,19.93
2017-08-15T02:08:25.114Z,17.90
2017-08-15T02:10:52.598Z,19.83
2017-08-15T02:13:21.090Z,20.60
2017-08-15T02:15:48.545Z,18.40
2017-08-15T02:18:16.286Z,20.60
2017-08-15T02:20:43.741Z,17.77
2017-08-15T02:23:11.229Z,18.00
2017-08-15T02:25:38.690Z,19.23
2017-08-15T02:28:06.150Z,18.97
2017-08-15T02:30:33.696Z,21.17
2017-08-15T02:33:01.151Z,20.23
2017-08-15T02:35:29.377Z,21.87
2017-08-15T02:37:56.851Z,20.90
2017-08-15T02:40:24.310Z,21.00
2017-08-15T02:42:51.825Z,22.17
2017-08-15T02:45:19.289Z,21.63
2017-08-15T02:47:46.745Z,23.50
2017-08-15T02:50:14.223Z,21.97
2017-08-15T02:52:41.702Z,21.90
2017-08-15T02:55:09.150Z,21.90
2017-08-15T02:57:36.642Z,22.47
2017-08-15T03:00:04.108Z,22.63
2017-08-15T03:02:31.561Z,22.40
2017-08-15T03:04:59.045Z,24.00
2017-08-15T03:07:26.523Z,23.73
2017-08-15T03:09:53.997Z,24.80
2017-08-15T03:12:21.468Z,24.10
2017-08-15T03:14:48.922Z,22.63
2017-08-15T03:17:16.398Z,24.90
2017-08-15T03:19:43.850Z,23.20
2017-08-15T03:22:11.329Z,26.93
2017-08-15T03:24:38.873Z,23.77
2017-08-15T03:27:06.326Z,25.60
2017-08-15T03:29:33.814Z,26.60
2017-08-15T03:32:01.498Z,24.10
2017-08-15T03:34:28.944Z,25.43
2017-08-15T03:36:56.579Z,25.83
2017-08-15T03:39:24.122Z,25.27
2017-08-15T03:41:51.589Z,24.30
2017-08-15T03:44:19.045Z,25.20
2017-08-15T03:46:46.561Z,25.27
2017-08-15T03:49:14.022Z,25.83
2017-08-15T03:51:41.478Z,25.27
2017-08-15T03:54:08.964Z,24.70
2017-08-15T03:56:36.425Z,24.93
2017-08-15T03:59:03.897Z,25.43
2017-08-15T04:01:31.382Z,28.93
2017-08-15T04:03:58.837Z,25.77
2017-08-15T04:06:26.322Z,27.77
2017-08-15T04:08:53.821Z,27.63
2017-08-15T04:11:21.302Z,27.33
2017-08-15T04:13:48.785Z,27.70
2017-08-15T04:16:16.242Z,29.63
2017-08-15T04:18:43.721Z,30.03
2017-08-15T04:21:11.168Z,28.70
2017-08-15T04:23:38.647Z,29.60
2017-08-15T04:26:06.160Z,29.77
2017-08-15T04:28:34.402Z,30.80
2017-08-15T04:31:01.869Z,32.10
2017-08-15T04:33:29.389Z,33.23
2017-08-15T04:35:56.841Z,31.00
2017-08-15T04:38:24.330Z,32.00
2017-08-15T04:40:51.814Z,32.20
2017-08-15T04:43:19.310Z,32.67
2017-08-15T04:45:46.768Z,31.30
2017-08-15T04:48:14.230Z,29.70
2017-08-15T04:50:41.710Z,32.70
2017-08-15T04:53:09.436Z,30.53
2017-08-15T04:55:36.897Z,32.20
2017-08-15T04:58:04.345Z,32.43
2017-08-15T05:00:31.829Z,30.57
2017-08-15T05:02:59.294Z,29.57
2017-08-15T05:05:26.768Z,31.93
2017-08-15T05:07:54.595Z,29.00
2017-08-15T05:10:22.090Z,30.50
2017-08-15T05:12:49.558Z,28.97
2017-08-15T05:15:17.025Z,27.10
2017-08-15T05:17:44.542Z,26.77
2017-08-15T05:20:11.991Z,23.73
2017-08-15T05:22:39.472Z,22.23
2017-08-15T05:25:06.947Z,23.10
2017-08-15T05:27:34.421Z,24.63
2017-08-15T05:30:01.994Z,24.93
2017-08-15T05:32:29.473Z,21.90
2017-08-15T05:34:56.934Z,21.17
2017-08-15T05:37:24.413Z,20.83
2017-08-15T05:39:51.902Z,21.70
2017-08-15T05:42:19.382Z,19.70
2017-08-15T05:44:46.869Z,20.87
2017-08-15T05:47:14.338Z,19.73
2017-08-15T05:49:41.792Z,19.80
2017-08-15T05:52:09.286Z,19.60
2017-08-15T05:54:36.738Z,17.63
2017-08-15T05:57:04.233Z,18.80
2017-08-15T05:59:31.686Z,18.93
2017-08-15T06:01:59.163Z,17.43
2017-08-15T06:04:26.613Z,16.90
2017-08-15T06:06:54.093Z,15.57
2017-08-15T06:09:21.594Z,15.40
2017-08-15T06:11:49.063Z,14.40
2017-08-15T06:14:16.518Z,17.10
2017-08-15T06:16:44.005Z,15.90
2017-08-15T06:19:12.220Z,15.50
2017-08-15T06:21:39.701Z,13.60
2017-08-15T06:24:07.185Z,13.70
2017-08-15T06:26:34.645Z,12.90
2017-08-15T06:29:02.217Z,13.90
2017-08-15T06:31:29.697Z,13.07
2017-08-15T06:33:57.172Z,12.30
2017-08-15T06:36:24.658Z,10.50
2017-08-15T06:38:52.119Z,11.50
2017-08-15T06:41:19.581Z,12.33
2017-08-15T06:43:47.070Z,11.97
2017-08-15T06:46:15.289Z,11.03
2017-08-15T06:48:42.790Z,13.10
2017-08-15T06:51:10.273Z,12.40
2017-08-15T06:53:37.745Z,11.77
2017-08-15T06:56:05.225Z,11.30
2017-08-15T06:58:32.742Z,12.33
2017-08-15T07:01:00.204Z,11.57
2017-08-15T07:03:27.676Z,12.40
2017-08-15T07:05:55.152Z,12.40
2017-08-15T07:08:22.615Z,12.00
2017-08-15T07:10:50.090Z,12.67
2017-08-15T07:13:17.550Z,11.73
2017-08-15T07:15:45.037Z,12.73
2017-08-15T07:18:13.256Z,11.47
2017-08-15T07:20:40.755Z,10.80
2017-08-15T07:23:08.252Z,11.13
2017-08-15T07:25:35.710Z,12.00
2017-08-15T07:28:03.200Z,11.13
2017-08-15T07:30:30.702Z,12.93
2017-08-15T07:32:58.158Z,12.43
2017-08-15T07:35:25.628Z,12.30
2017-08-15T07:37:53.156Z,12.23
2017-08-15T07:40:20.617Z,13.70
2017-08-15T07:42:48.088Z,11.43
2017-08-15T07:45:15.583Z,12.67
2017-08-15T07:47:43.043Z,13.53
2017-08-15T07:50:10.550Z,14.10
2017-08-15T07:52:38.052Z,14.47
2017-08-15T07:55:05.515Z,13.50
2017-08-15T07:57:32.977Z,13.13
2017-08-15T08:00:00.459Z,13.10
2017-08-15T08:02:27.948Z,12.90
2017-08-15T08:04:55.429Z,11.03
2017-08-15T08:07:22.892Z,12.10
2017-08-15T08:09:51.150Z,12.53
2017-08-15T08:12:18.654Z,12.50
2017-08-15T08:14:46.113Z,12.93
2017-08-15T08:17:13.564Z,11.70
2017-08-15T08:19:41.107Z,12.57
2017-08-15T08:22:08.565Z,10.63
2017-08-15T08:24:36.047Z,12.80
2017-08-15T08:27:03.509Z,13.00
2017-08-15T08:29:30.997Z,11.93
2017-08-15T08:31:58.469Z,11.57
2017-08-15T08:34:25.930Z,10.27
2017-08-15T08:36:53.414Z,10.80
2017-08-15T08:39:21.633Z,10.97
2017-08-15T08:41:49.133Z,10.97
2017-08-15T08:44:16.590Z,9.87
2017-08-15T08:46:44.054Z,10.87
2017-08-15T08:49:11.638Z,9.00
2017-08-15T08:51:39.098Z,10.80
2017-08-15T08:54:06.569Z,10.50
2017-08-15T08:56:34.033Z,10.30
2017-08-15T08:59:01.507Z,10.17
2017-08-15T09:01:29.005Z,9.87
2017-08-15T09:03:56.447Z,10.00
2017-08-15T09:06:24.681Z,10.00
2017-08-15T09:08:52.173Z,9.97
2017-08-15T09:11:19.621Z,9.47
2017-08-15T09:13:47.065Z,9.37
2017-08-15T09:16:14.533Z,9.33
2017-08-15T09:18:42.003Z,10.40
2017-08-15T09:21:09.580Z,8.60
2017-08-15T09:23:37.035Z,9.40
2017-08-15T09:26:04.531Z,10.40
2017-08-15T09:28:31.990Z,9.40
2017-08-15T09:30:59.458Z,9.70
2017-08-15T09:33:26.951Z,9.13
2017-08-15T09:35:54.436Z,9.30
2017-08-15T09:38:21.898Z,9.57
2017-08-15T09:40:50.126Z,8.67
2017-08-15T09:43:17.625Z,10.20
2017-08-15T09:45:45.106Z,9.60
2017-08-15T09:48:12.646Z,9.40
2017-08-15T09:50:40.126Z,9.20
2017-08-15T09:53:07.609Z,8.37
2017-08-15T09:55:35.094Z,9.30
2017-08-15T09:58:08.288Z,9.30
2017-08-15T10:00:35.797Z,9.20
2017-08-15T10:03:03.236Z,8.50
2017-08-15T10:05:31.454Z,8.93
2017-08-15T10:07:58.968Z,9.53
2017-08-15T10:10:26.513Z,9.07
2017-08-15T10:12:53.967Z,9.73
2017-08-15T10:15:21.442Z,10.53
2017-08-15T10:17:48.934Z,10.07
2017-08-15T10:20:16.421Z,7.77
2017-08-15T10:22:43.881Z,9.27
2017-08-15T10:25:11.449Z,9.07
2017-08-15T10:27:38.952Z,10.17
2017-08-15T10:30:07.177Z,10.40
2017-08-15T10:32:34.642Z,9.60
2017-08-15T10:35:02.123Z,9.53
2017-08-15T10:37:29.578Z,8.13
2017-08-15T10:39:57.158Z,9.00
2017-08-15T10:42:24.617Z,9.43
2017-08-15T10:44:52.093Z,8.17
2017-08-15T10:47:19.582Z,7.73
2017-08-15T10:49:47.051Z,8.30
2017-08-15T10:52:14.566Z,8.90
2017-08-15T10:54:42.026Z,10.10
2017-08-15T10:57:09.605Z,8.40
2017-08-15T10:59:37.089Z,8.53
2017-08-15T11:02:04.574Z,7.87
2017-08-15T11:04:32.027Z,8.03
2017-08-15T11:06:59.482Z,6.77
2017-08-15T11:09:27.058Z,9.27
2017-08-15T11:11:54.521Z,8.53
2017-08-15T11:14:21.998Z,8.07
2017-08-15T11:16:49.450Z,8.17
2017-08-15T11:19:16.925Z,9.67
2017-08-15T11:21:44.387Z,8.00
2017-08-15T11:24:11.905Z,9.20
2017-08-15T11:26:39.358Z,8.60
2017-08-15T11:29:06.802Z,7.90
2017-08-15T11:31:34.294Z,8.40
2017-08-15T11:34:01.747Z,9.10
2017-08-15T11:36:29.197Z,7.20
2017-08-15T11:38:56.678Z,8.07
2017-08-15T11:41:24.137Z,8.53
2017-08-15T11:43:51.622Z,9.13
2017-08-15T11:46:19.078Z,7.10
2017-08-15T11:48:46.574Z,6.13
2017-08-15T11:51:14.034Z,8.70
2017-08-15T11:53:41.497Z,9.20
2017-08-15T11:56:08.977Z,8.50
2017-08-15T11:58:36.445Z,7.90
2017-08-15T12:01:03.910Z,7.13
2017-08-15T12:03:31.362Z,7.10
2017-08-15T12:05:58.833Z,7.23
2017-08-15T12:08:26.290Z,7.00
2017-08-15T12:10:53.749Z,6.37
2017-08-15T12:13:21.227Z,5.60
2017-08-15T12:15:48.701Z,4.63
2017-08-15T12:18:16.146Z,4.50
2017-08-15T12:20:43.598Z,4.60
2017-08-15T12:23:11.078Z,4.17
2017-08-15T12:25:38.545Z,4.07
2017-08-15T12:28:06.022Z,3.80
2017-08-15T12:30:33.494Z,3.80
2017-08-15T12:33:00.941Z,5.20
2017-08-15T12:35:29.170Z,4.60
2017-08-15T12:37:56.622Z,5.53
2017-08-15T12:40:24.093Z,5.90
2017-08-15T12:42:51.550Z,5.13
2017-08-15T12:45:19.033Z,5.20
2017-08-15T12:47:46.518Z,5.90
2017-08-15T12:50:14.725Z,4.47
2017-08-15T12:52:42.206Z,5.50
2017-08-15T12:55:09.666Z,3.50
2017-08-15T12:57:37.136Z,4.23
2017-08-15T13:00:04.687Z,4.13
2017-08-15T13:02:32.157Z,3.27
2017-08-15T13:04:59.605Z,2.90
2017-08-15T13:07:27.077Z,2.83
2017-08-15T13:09:54.582Z,3.00
2017-08-15T13:12:22.074Z,2.97
2017-08-15T13:14:49.517Z,3.97
2017-08-15T13:17:17.002Z,4.20
2017-08-15T13:19:44.490Z,4.00
2017-08-15T13:22:11.944Z,3.73
2017-08-15T13:24:40.201Z,4.00
2017-08-15T13:27:07.661Z,4.60
2017-08-15T13:29:35.193Z,4.17
2017-08-15T13:32:02.679Z,3.70
2017-08-15T13:34:30.141Z,3.80
2017-08-15T13:36:57.627Z,3.30
2017-08-15T13:39:25.091Z,3.90
2017-08-15T13:41:52.596Z,3.60
2017-08-15T13:44:20.054Z,3.90
2017-08-15T13:46:47.522Z,4.77
2017-08-15T13:49:14.997Z,3.70
2017-08-15T13:51:43.216Z,5.03
2017-08-15T13:54:10.678Z,5.30
2017-08-15T13:56:38.362Z,4.83
2017-08-15T13:59:05.833Z,5.10
2017-08-15T14:01:33.286Z,4.27
2017-08-15T14:04:00.750Z,4.83
2017-08-15T14:06:28.214Z,4.20
2017-08-15T14:08:55.700Z,4.73
2017-08-15T14:11:23.167Z,4.40
2017-08-15T14:13:50.629Z,4.83
2017-08-15T14:16:18.117Z,5.70
2017-08-15T14:18:45.558Z,5.10
2017-08-15T14:21:13.009Z,5.77
2017-08-15T14:23:40.507Z,5.30
2017-08-15T14:26:07.996Z,6.37
2017-08-15T14:28:35.461Z,5.73
2017-08-15T14:31:02.926Z,5.90
2017-08-15T14:33:30.407Z,5.30
2017-08-15T14:35:57.874Z,6.07
2017-08-15T14:38:25.339Z,5.70
2017-08-15T14:40:52.826Z,5.60
2017-08-15T14:43:20.283Z,5.40
2017-08-15T14:45:47.733Z,6.17
2017-08-15T14:48:15.212Z,5.37
2017-08-15T14:50:43.470Z,6.10
2017-08-15T14:53:10.925Z,5.70
2017-08-15T14:55:38.386Z,6.37
2017-08-15T14:58:05.870Z,6.23
2017-08-15T15:00:34.098Z,6.00
2017-08-15T15:03:01.565Z,6.17
2017-08-15T15:05:29.046Z,6.57
2017-08-15T15:07:56.522Z,5.93
2017-08-15T15:10:24.735Z,6.33
2017-08-15T15:12:52.190Z,7.50
2017-08-15T15:15:19.672Z,7.13
2017-08-15T15:17:47.117Z,7.33
2017-08-15T15:20:14.567Z,7.27
2017-08-15T15:22:42.089Z,7.33
2017-08-15T15:25:10.305Z,6.80
2017-08-15T15:27:37.754Z,6.90
2017-08-15T15:30:05.294Z,7.20
2017-08-15T15:32:32.801Z,7.70
2017-08-15T15:35:00.259Z,6.50
2017-08-15T15:37:27.738Z,7.07
2017-08-15T15:39:55.198Z,7.10
2017-08-15T15:42:22.646Z,7.57
2017-08-15T15:44:50.145Z,8.70
2017-08-15T15:47:22.411Z,9.07
2017-08-15T15:49:50.153Z,8.80
2017-08-15T15:52:17.616Z,6.80
2017-08-15T15:54:45.101Z,8.30
2017-08-15T15:57:12.552Z,7.37
2017-08-15T15:59:40.023Z,7.53
2017-08-15T16:02:07.496Z,8.70
2017-08-15T16:04:34.953Z,9.30
2017-08-15T16:07:02.416Z,7.90
2017-08-15T16:09:29.985Z,7.83
2017-08-15T16:11:57.440Z,7.80
2017-08-15T16:14:24.905Z,8.67
2017-08-15T16:16:52.381Z,7.63
2017-08-15T16:19:19.950Z,7.67
2017-08-15T16:21:47.392Z,6.90
2017-08-15T16:24:14.880Z,8.17
2017-08-15T16:26:42.333Z,7.57
2017-08-15T16:29:09.838Z,6.47
2017-08-15T16:31:37.281Z,7.87
2017-08-15T16:34:04.777Z,9.27
2017-08-15T16:36:32.277Z,12.30
2017-08-15T16:38:59.765Z,9.93
2017-08-15T16:41:27.287Z,14.57
2017-08-15T16:43:54.810Z,13.10
2017-08-15T16:46:22.301Z,11.07
2017-08-15T16:48:49.857Z,11.90
2017-08-15T16:51:17.406Z,10.90
2017-08-15T16:53:44.877Z,9.40
2017-08-15T16:56:13.113Z,9.97
2017-08-15T16:58:40.646Z,8.80
2017-08-15T17:01:08.106Z,7.10
2017-08-15T17:03:35.552Z,8.13
2017-08-15T17:06:03.038Z,12.40
2017-08-15T17:08:30.505Z,11.83
2017-08-15T17:10:57.957Z,11.67
2017-08-15T17:13:25.950Z,11.03
2017-08-15T17:15:54.196Z,9.67
2017-08-15T17:18:29.065Z,8.50
2017-08-15T17:20:58.508Z,7.60
2017-08-15T17:23:26.285Z,7.17
2017-08-15T17:25:54.506Z,6.50
2017-08-15T17:28:22.340Z,6.60
2017-08-15T17:30:49.837Z,7.20
2017-08-15T17:33:17.481Z,6.97
2017-08-15T17:35:45.501Z,8.10
2017-08-15T17:38:13.781Z,8.60
2017-08-15T17:40:41.230Z,9.80
2017-08-15T17:43:09.485Z,8.63
2017-08-15T17:45:37.073Z,8.50
2017-08-15T17:48:05.368Z,8.67
2017-08-15T17:50:32.891Z,8.10
2017-08-15T17:53:01.557Z,9.10
2017-08-15T17:55:29.880Z,8.63
2017-08-15T17:57:58.109Z,9.77
2017-08-15T18:00:25.598Z,8.37
2017-08-15T18:02:53.101Z,8.90
2017-08-15T18:05:20.625Z,10.37
2017-08-15T18:07:48.151Z,9.13
2017-08-15T18:10:15.629Z,10.13
2017-08-15T18:12:43.156Z,10.07
2017-08-15T18:15:10.676Z,9.97
2017-08-15T18:17:38.207Z,10.97
2017-08-15T18:20:06.467Z,10.50
2017-08-15T18:22:34.012Z,10.10
2017-08-15T18:25:01.502Z,9.87
2017-08-15T18:27:29.863Z,9.57
2017-08-15T18:29:57.764Z,9.83
2017-08-15T18:32:25.697Z,9.80
2017-08-15T18:34:53.392Z,9.40
2017-08-15T18:37:21.468Z,9.57
2017-08-15T18:39:49.020Z,8.77
2017-08-15T18:42:16.566Z,10.57
2017-08-15T18:44:44.085Z,10.50
2017-08-15T18:47:11.619Z,9.03
2017-08-15T18:49:39.129Z,9.77
2017-08-15T18:52:06.855Z,9.53
2017-08-15T18:54:34.317Z,10.63
2017-08-15T18:57:03.520Z,10.10
2017-08-15T18:59:31.171Z,11.70
2017-08-15T19:01:58.675Z,11.00
2017-08-15T19:04:26.366Z,11.50
2017-08-15T19:06:53.870Z,11.00
2017-08-15T19:09:21.584Z,9.87
2017-08-15T19:11:49.230Z,9.63
2017-08-15T19:14:18.844Z,9.77
2017-08-15T19:16:48.325Z,9.70
2017-08-15T19:19:16.141Z,10.07
2017-08-15T19:21:43.675Z,10.40
2017-08-15T19:24:23.359Z,10.93
2017-08-15T19:26:51.005Z,9.60
2017-08-15T19:29:18.635Z,10.40
2017-08-15T19:31:46.325Z,11.60
2017-08-15T19:34:14.069Z,11.83
2017-08-15T19:36:41.595Z,11.63
2017-08-15T19:39:09.284Z,12.13
2017-08-15T19:41:36.967Z,10.77
2017-08-15T19:44:04.633Z,10.67
2017-08-15T19:46:32.883Z,10.63
2017-08-15T19:49:00.397Z,10.23
2017-08-15T19:51:27.965Z,10.27
2017-08-15T19:53:55.681Z,10.53
2017-08-15T19:56:23.161Z,11.07
2017-08-15T19:58:51.378Z,11.60
2017-08-15T20:01:18.883Z,11.40
2017-08-15T20:03:46.379Z,11.77
2017-08-15T20:06:13.871Z,10.80
2017-08-15T20:08:41.370Z,12.10
2017-08-15T20:11:09.659Z,11.30
2017-08-15T20:13:37.107Z,11.40
2017-08-15T20:16:04.561Z,14.00
2017-08-15T20:18:32.813Z,11.63
2017-08-15T20:21:00.314Z,12.77
2017-08-15T20:23:28.543Z,13.60
2017-08-15T20:25:56.010Z,12.23
2017-08-15T20:28:23.474Z,12.03
2017-08-15T20:30:50.950Z,13.53
2017-08-15T20:33:18.410Z,13.43
2017-08-15T20:35:45.885Z,13.37
2017-08-15T20:38:13.346Z,14.20
2017-08-15T20:40:40.842Z,13.10
2017-08-15T20:43:08.348Z,13.37
2017-08-15T20:45:36.566Z,14.17
2017-08-15T20:48:04.021Z,13.73
2017-08-15T20:50:31.498Z,14.90
2017-08-15T20:52:58.958Z,15.10
2017-08-15T20:55:26.433Z,15.93
2017-08-15T20:57:53.886Z,17.23
2017-08-15T21:00:21.468Z,16.13
2017-08-15T21:02:48.972Z,17.70
2017-08-15T21:05:16.500Z,17.13
2017-08-15T21:07:43.968Z,16.90
2017-08-15T21:10:11.454Z,16.60
2017-08-15T21:12:38.910Z,18.00
2017-08-15T21:15:06.396Z,16.23
2017-08-15T21:17:33.858Z,17.03
2017-08-15T21:20:01.309Z,18.27
2017-08-15T21:22:28.791Z,20.33
2017-08-15T21:24:56.237Z,18.03
2017-08-15T21:27:23.719Z,18.07
2017-08-15T21:29:51.175Z,20.70
2017-08-15T21:32:18.645Z,21.30
2017-08-15T21:34:46.112Z,21.37
2017-08-15T21:37:13.595Z,21.07
2017-08-15T21:39:41.070Z,21.40
2017-08-15T21:42:08.530Z,20.67
2017-08-15T21:44:36.027Z,21.00
2017-08-15T21:47:03.502Z,21.23
2017-08-15T21:49:30.962Z,22.07
2017-08-15T21:51:58.455Z,21.00
2017-08-15T21:54:25.915Z,22.20
2017-08-15T21:56:53.394Z,22.47
2017-08-15T21:59:20.859Z,21.90
2017-08-15T22:01:53.930Z,21.10
2017-08-15T22:04:21.414Z,21.47
2017-08-15T22:06:48.870Z,23.33
2017-08-15T22:09:17.133Z,20.70
2017-08-15T22:11:44.585Z,19.53
2017-08-15T22:14:12.037Z,20.87
2017-08-15T22:16:39.514Z,18.60
2017-08-15T22:19:06.970Z,20.90
2017-08-15T22:21:34.458Z,21.10
2017-08-15T22:24:01.926Z,18.80
2017-08-15T22:26:29.381Z,20.30
2017-08-15T22:28:56.910Z,20.60
2017-08-15T22:31:24.385Z,20.60
2017-08-15T22:33:51.837Z,20.63
2017-08-15T22:36:19.317Z,20.60
2017-08-15T22:38:46.778Z,19.93
2017-08-15T22:41:14.275Z,19.67
2017-08-15T22:43:41.729Z,17.13
2017-08-15T22:46:09.190Z,19.87
2017-08-15T22:48:36.669Z,18.67
2017-08-15T22:51:04.147Z,19.43
2017-08-15T22:53:31.602Z,17.43
2017-08-15T22:55:59.842Z,17.80
2017-08-15T22:58:27.475Z,20.40
2017-08-15T23:00:54.931Z,18.47
2017-08-15T23:03:22.390Z,18.40
2017-08-15T23:05:49.866Z,18.63
2017-08-15T23:08:17.346Z,18.63
2017-08-15T23:10:44.801Z,20.10
2017-08-15T23:13:12.277Z,21.07
2017-08-15T23:15:40.571Z,20.97
2017-08-15T23:18:08.790Z,19.83
2017-08-15T23:20:36.250Z,20.47
2017-08-15T23:23:03.727Z,21.83
2017-08-15T23:25:31.177Z,20.80
2017-08-15T23:27:58.666Z,21.60
2017-08-15T23:30:26.885Z,21.07
2017-08-15T23:32:54.346Z,21.07
2017-08-15T23:35:21.818Z,21.83
2017-08-15T23:37:49.329Z,21.63
2017-08-15T23:40:17.557Z,21.80
2017-08-15T23:42:45.013Z,23.27
2017-08-15T23:45:12.490Z,24.10
2017-08-15T23:47:39.948Z,24.20
2017-08-15T23:50:07.423Z,25.17
2017-08-15T23:52:35.662Z,23.50
2017-08-15T23:55:03.114Z,23.53
2017-08-15T23:57:30.586Z,26.90
2017-08-15T23:59:58.045Z,25.03
